sensor_id;sensor_type;location;lat;lon;timestamp;P1;durP1;ratioP1;P2;durP2;ratioP2
47335;SDS011;33068;51.990;5.926;2022-11-20T00:02:21;22.70;;;10.18;;
47335;SDS011;33068;51.990;5.926;2022-11-20T00:04:58;17.33;;;9.63;;
47335;SDS011;33068;51.990;5.926;2022-11-20T00:07:27;20.98;;;10.05;;
47335;SDS011;33068;51.990;5.926;2022-11-20T00:09:54;17.77;;;9.40;;
47335;SDS011;33068;51.990;5.926;2022-11-20T00:12:21;18.02;;;8.13;;
47335;SDS011;33068;51.990;5.926;2022-11-20T00:14:48;19.60;;;9.32;;
47335;SDS011;33068;51.990;5.926;2022-11-20T00:17:15;21.77;;;9.60;;
47335;SDS011;33068;51.990;5.926;2022-11-20T00:19:43;18.27;;;8.63;;
47335;SDS011;33068;51.990;5.926;2022-11-20T00:22:10;18.88;;;8.45;;
47335;SDS011;33068;51.990;5.926;2022-11-20T00:24:39;16.13;;;7.22;;
47335;SDS011;33068;51.990;5.926;2022-11-20T00:27:06;18.92;;;8.70;;
47335;SDS011;33068;51.990;5.926;2022-11-20T00:29:33;17.95;;;9.18;;
47335;SDS011;33068;51.990;5.926;2022-11-20T00:32:00;16.48;;;8.27;;
47335;SDS011;33068;51.990;5.926;2022-11-20T00:34:30;16.60;;;9.43;;
47335;SDS011;33068;51.990;5.926;2022-11-20T00:36:57;15.50;;;9.13;;
47335;SDS011;33068;51.990;5.926;2022-11-20T00:39:26;22.38;;;10.43;;
47335;SDS011;33068;51.990;5.926;2022-11-20T00:41:55;20.58;;;9.23;;
47335;SDS011;33068;51.990;5.926;2022-11-20T00:44:25;24.58;;;9.73;;
47335;SDS011;33068;51.990;5.926;2022-11-20T00:46:52;22.10;;;9.32;;
47335;SDS011;33068;51.990;5.926;2022-11-20T00:49:23;22.05;;;11.20;;
47335;SDS011;33068;51.990;5.926;2022-11-20T00:51:51;25.33;;;10.57;;
47335;SDS011;33068;51.990;5.926;2022-11-20T00:54:22;18.65;;;10.02;;
47335;SDS011;33068;51.990;5.926;2022-11-20T00:56:50;20.42;;;10.43;;
47335;SDS011;33068;51.990;5.926;2022-11-20T00:59:20;18.30;;;8.65;;
47335;SDS011;33068;51.990;5.926;2022-11-20T01:01:48;17.30;;;8.45;;
47335;SDS011;33068;51.990;5.926;2022-11-20T01:04:15;14.70;;;8.15;;
47335;SDS011;33068;51.990;5.926;2022-11-20T01:06:44;16.92;;;8.52;;
47335;SDS011;33068;51.990;5.926;2022-11-20T01:09:12;17.70;;;8.18;;
47335;SDS011;33068;51.990;5.926;2022-11-20T01:11:41;14.60;;;7.15;;
47335;SDS011;33068;51.990;5.926;2022-11-20T01:14:10;19.55;;;9.35;;
47335;SDS011;33068;51.990;5.926;2022-11-20T01:16:47;17.23;;;9.02;;
47335;SDS011;33068;51.990;5.926;2022-11-20T01:19:17;17.38;;;9.05;;
47335;SDS011;33068;51.990;5.926;2022-11-20T01:21:46;17.17;;;8.95;;
47335;SDS011;33068;51.990;5.926;2022-11-20T01:24:18;14.73;;;8.05;;
47335;SDS011;33068;51.990;5.926;2022-11-20T01:26:54;15.88;;;7.70;;
47335;SDS011;33068;51.990;5.926;2022-11-20T01:29:24;16.73;;;7.90;;
47335;SDS011;33068;51.990;5.926;2022-11-20T01:31:57;18.85;;;8.57;;
47335;SDS011;33068;51.990;5.926;2022-11-20T01:34:27;17.88;;;8.30;;
47335;SDS011;33068;51.990;5.926;2022-11-20T01:36:59;18.25;;;8.90;;
47335;SDS011;33068;51.990;5.926;2022-11-20T01:39:26;14.88;;;8.23;;
47335;SDS011;33068;51.990;5.926;2022-11-20T01:41:54;15.70;;;8.30;;
47335;SDS011;33068;51.990;5.926;2022-11-20T01:44:45;17.67;;;8.70;;
47335;SDS011;33068;51.990;5.926;2022-11-20T01:47:17;24.00;;;9.20;;
47335;SDS011;33068;51.990;5.926;2022-11-20T01:49:52;16.27;;;8.43;;
47335;SDS011;33068;51.990;5.926;2022-11-20T01:52:23;17.75;;;8.05;;
47335;SDS011;33068;51.990;5.926;2022-11-20T01:54:54;16.65;;;9.32;;
47335;SDS011;33068;51.990;5.926;2022-11-20T01:57:25;20.05;;;9.65;;
47335;SDS011;33068;51.990;5.926;2022-11-20T01:59:57;18.60;;;8.70;;
47335;SDS011;33068;51.990;5.926;2022-11-20T02:02:39;16.95;;;8.80;;
47335;SDS011;33068;51.990;5.926;2022-11-20T02:05:12;14.82;;;8.35;;
47335;SDS011;33068;51.990;5.926;2022-11-20T02:07:50;18.95;;;8.73;;
47335;SDS011;33068;51.990;5.926;2022-11-20T02:10:23;18.25;;;8.20;;
47335;SDS011;33068;51.990;5.926;2022-11-20T02:12:54;17.10;;;7.97;;
47335;SDS011;33068;51.990;5.926;2022-11-20T02:15:39;17.60;;;8.50;;
47335;SDS011;33068;51.990;5.926;2022-11-20T02:18:20;16.27;;;8.35;;
47335;SDS011;33068;51.990;5.926;2022-11-20T02:20:52;19.85;;;9.23;;
47335;SDS011;33068;51.990;5.926;2022-11-20T02:23:24;16.80;;;8.13;;
47335;SDS011;33068;51.990;5.926;2022-11-20T02:26:04;16.08;;;8.60;;
47335;SDS011;33068;51.990;5.926;2022-11-20T02:28:37;15.82;;;8.45;;
47335;SDS011;33068;51.990;5.926;2022-11-20T02:31:04;16.42;;;8.50;;
47335;SDS011;33068;51.990;5.926;2022-11-20T02:33:32;24.92;;;11.10;;
47335;SDS011;33068;51.990;5.926;2022-11-20T02:36:01;19.65;;;10.48;;
47335;SDS011;33068;51.990;5.926;2022-11-20T02:38:28;24.58;;;10.88;;
47335;SDS011;33068;51.990;5.926;2022-11-20T02:40:57;16.48;;;8.88;;
47335;SDS011;33068;51.990;5.926;2022-11-20T02:43:28;14.95;;;8.35;;
47335;SDS011;33068;51.990;5.926;2022-11-20T02:45:57;18.05;;;8.60;;
47335;SDS011;33068;51.990;5.926;2022-11-20T02:48:25;16.77;;;8.95;;
47335;SDS011;33068;51.990;5.926;2022-11-20T02:50:52;18.48;;;9.23;;
47335;SDS011;33068;51.990;5.926;2022-11-20T02:53:19;15.75;;;8.85;;
47335;SDS011;33068;51.990;5.926;2022-11-20T02:55:47;18.13;;;9.07;;
47335;SDS011;33068;51.990;5.926;2022-11-20T02:58:14;16.83;;;8.15;;
47335;SDS011;33068;51.990;5.926;2022-11-20T03:00:45;17.73;;;9.27;;
47335;SDS011;33068;51.990;5.926;2022-11-20T03:03:26;14.85;;;8.75;;
47335;SDS011;33068;51.990;5.926;2022-11-20T03:05:53;15.45;;;8.00;;
47335;SDS011;33068;51.990;5.926;2022-11-20T03:08:20;17.83;;;8.63;;
47335;SDS011;33068;51.990;5.926;2022-11-20T03:10:50;16.70;;;9.30;;
47335;SDS011;33068;51.990;5.926;2022-11-20T03:13:19;17.75;;;9.55;;
47335;SDS011;33068;51.990;5.926;2022-11-20T03:15:53;17.85;;;8.55;;
47335;SDS011;33068;51.990;5.926;2022-11-20T03:18:20;17.35;;;8.38;;
47335;SDS011;33068;51.990;5.926;2022-11-20T03:20:56;15.65;;;8.05;;
47335;SDS011;33068;51.990;5.926;2022-11-20T03:23:28;18.67;;;9.43;;
47335;SDS011;33068;51.990;5.926;2022-11-20T03:26:07;13.88;;;7.28;;
47335;SDS011;33068;51.990;5.926;2022-11-20T03:28:38;16.10;;;8.93;;
47335;SDS011;33068;51.990;5.926;2022-11-20T03:31:10;19.95;;;9.10;;
47335;SDS011;33068;51.990;5.926;2022-11-20T03:33:39;16.85;;;9.23;;
47335;SDS011;33068;51.990;5.926;2022-11-20T03:36:08;14.80;;;8.75;;
47335;SDS011;33068;51.990;5.926;2022-11-20T03:38:37;19.67;;;10.00;;
47335;SDS011;33068;51.990;5.926;2022-11-20T03:41:06;16.50;;;9.30;;
47335;SDS011;33068;51.990;5.926;2022-11-20T03:43:34;16.63;;;9.27;;
47335;SDS011;33068;51.990;5.926;2022-11-20T03:46:01;21.23;;;9.40;;
47335;SDS011;33068;51.990;5.926;2022-11-20T03:48:31;24.15;;;10.75;;
47335;SDS011;33068;51.990;5.926;2022-11-20T03:51:08;22.20;;;10.40;;
47335;SDS011;33068;51.990;5.926;2022-11-20T03:53:37;18.40;;;9.27;;
47335;SDS011;33068;51.990;5.926;2022-11-20T03:56:04;18.67;;;9.23;;
47335;SDS011;33068;51.990;5.926;2022-11-20T03:58:32;16.60;;;9.85;;
47335;SDS011;33068;51.990;5.926;2022-11-20T04:01:03;18.17;;;9.18;;
47335;SDS011;33068;51.990;5.926;2022-11-20T04:03:33;21.05;;;9.98;;
47335;SDS011;33068;51.990;5.926;2022-11-20T04:06:03;24.05;;;9.82;;
47335;SDS011;33068;51.990;5.926;2022-11-20T04:08:33;21.10;;;9.77;;
47335;SDS011;33068;51.990;5.926;2022-11-20T04:11:10;20.63;;;10.20;;
47335;SDS011;33068;51.990;5.926;2022-11-20T04:13:39;19.73;;;9.88;;
47335;SDS011;33068;51.990;5.926;2022-11-20T04:16:07;24.45;;;10.65;;
47335;SDS011;33068;51.990;5.926;2022-11-20T04:18:37;18.77;;;10.40;;
47335;SDS011;33068;51.990;5.926;2022-11-20T04:21:04;19.58;;;10.23;;
47335;SDS011;33068;51.990;5.926;2022-11-20T04:23:32;26.90;;;10.10;;
47335;SDS011;33068;51.990;5.926;2022-11-20T04:26:00;27.70;;;11.18;;
47335;SDS011;33068;51.990;5.926;2022-11-20T04:28:28;22.65;;;10.88;;
47335;SDS011;33068;51.990;5.926;2022-11-20T04:31:01;19.55;;;10.18;;
47335;SDS011;33068;51.990;5.926;2022-11-20T04:33:29;19.30;;;10.35;;
47335;SDS011;33068;51.990;5.926;2022-11-20T04:36:03;20.65;;;10.60;;
47335;SDS011;33068;51.990;5.926;2022-11-20T04:38:35;21.73;;;11.80;;
47335;SDS011;33068;51.990;5.926;2022-11-20T04:41:02;21.23;;;10.82;;
47335;SDS011;33068;51.990;5.926;2022-11-20T04:43:34;23.55;;;11.20;;
47335;SDS011;33068;51.990;5.926;2022-11-20T04:46:01;22.50;;;10.70;;
47335;SDS011;33068;51.990;5.926;2022-11-20T04:48:28;30.50;;;12.25;;
47335;SDS011;33068;51.990;5.926;2022-11-20T04:50:56;21.65;;;10.57;;
47335;SDS011;33068;51.990;5.926;2022-11-20T04:53:25;19.88;;;11.63;;
47335;SDS011;33068;51.990;5.926;2022-11-20T04:55:52;21.75;;;10.35;;
47335;SDS011;33068;51.990;5.926;2022-11-20T04:58:26;21.45;;;10.60;;
47335;SDS011;33068;51.990;5.926;2022-11-20T05:00:54;20.15;;;11.20;;
47335;SDS011;33068;51.990;5.926;2022-11-20T05:03:28;23.08;;;11.13;;
47335;SDS011;33068;51.990;5.926;2022-11-20T05:05:55;20.50;;;11.10;;
47335;SDS011;33068;51.990;5.926;2022-11-20T05:08:22;21.90;;;11.30;;
47335;SDS011;33068;51.990;5.926;2022-11-20T05:10:51;20.80;;;10.70;;
47335;SDS011;33068;51.990;5.926;2022-11-20T05:13:18;23.42;;;11.20;;
47335;SDS011;33068;51.990;5.926;2022-11-20T05:15:46;20.38;;;10.98;;
47335;SDS011;33068;51.990;5.926;2022-11-20T05:18:13;19.58;;;11.32;;
47335;SDS011;33068;51.990;5.926;2022-11-20T05:20:40;23.80;;;11.02;;
47335;SDS011;33068;51.990;5.926;2022-11-20T05:23:07;25.02;;;12.52;;
47335;SDS011;33068;51.990;5.926;2022-11-20T05:25:34;23.17;;;10.30;;
47335;SDS011;33068;51.990;5.926;2022-11-20T05:28:04;26.27;;;11.18;;
47335;SDS011;33068;51.990;5.926;2022-11-20T05:30:31;19.08;;;11.40;;
47335;SDS011;33068;51.990;5.926;2022-11-20T05:33:03;25.48;;;12.00;;
47335;SDS011;33068;51.990;5.926;2022-11-20T05:35:31;25.10;;;12.48;;
47335;SDS011;33068;51.990;5.926;2022-11-20T05:37:58;20.80;;;11.13;;
47335;SDS011;33068;51.990;5.926;2022-11-20T05:43:50;24.23;;;12.05;;
47335;SDS011;33068;51.990;5.926;2022-11-20T05:46:21;23.38;;;11.48;;
47335;SDS011;33068;51.990;5.926;2022-11-20T05:49:28;22.85;;;11.48;;
47335;SDS011;33068;51.990;5.926;2022-11-20T05:55:20;21.30;;;11.63;;
47335;SDS011;33068;51.990;5.926;2022-11-20T05:57:59;23.42;;;12.30;;
47335;SDS011;33068;51.990;5.926;2022-11-20T06:00:27;21.80;;;11.40;;
47335;SDS011;33068;51.990;5.926;2022-11-20T06:02:54;26.88;;;11.75;;
47335;SDS011;33068;51.990;5.926;2022-11-20T06:05:26;21.10;;;11.32;;
47335;SDS011;33068;51.990;5.926;2022-11-20T06:08:04;25.77;;;11.85;;
47335;SDS011;33068;51.990;5.926;2022-11-20T06:10:34;21.90;;;11.75;;
47335;SDS011;33068;51.990;5.926;2022-11-20T06:13:03;28.92;;;11.10;;
47335;SDS011;33068;51.990;5.926;2022-11-20T06:15:32;27.65;;;12.85;;
47335;SDS011;33068;51.990;5.926;2022-11-20T06:18:01;24.10;;;11.68;;
47335;SDS011;33068;51.990;5.926;2022-11-20T06:20:28;31.10;;;13.52;;
47335;SDS011;33068;51.990;5.926;2022-11-20T06:22:57;29.55;;;13.68;;
47335;SDS011;33068;51.990;5.926;2022-11-20T06:25:27;23.42;;;11.82;;
47335;SDS011;33068;51.990;5.926;2022-11-20T06:27:56;29.25;;;13.57;;
47335;SDS011;33068;51.990;5.926;2022-11-20T06:30:27;32.45;;;14.02;;
47335;SDS011;33068;51.990;5.926;2022-11-20T06:33:07;27.30;;;12.80;;
47335;SDS011;33068;51.990;5.926;2022-11-20T06:35:35;30.98;;;12.93;;
47335;SDS011;33068;51.990;5.926;2022-11-20T06:38:04;24.20;;;12.43;;
47335;SDS011;33068;51.990;5.926;2022-11-20T06:40:32;28.20;;;12.98;;
47335;SDS011;33068;51.990;5.926;2022-11-20T06:42:59;22.27;;;12.13;;
47335;SDS011;33068;51.990;5.926;2022-11-20T06:45:27;28.63;;;13.43;;
47335;SDS011;33068;51.990;5.926;2022-11-20T06:47:56;27.73;;;13.35;;
47335;SDS011;33068;51.990;5.926;2022-11-20T06:50:25;26.88;;;13.68;;
47335;SDS011;33068;51.990;5.926;2022-11-20T06:53:00;34.50;;;15.07;;
47335;SDS011;33068;51.990;5.926;2022-11-20T06:55:29;32.03;;;14.70;;
47335;SDS011;33068;51.990;5.926;2022-11-20T06:58:01;32.42;;;14.63;;
47335;SDS011;33068;51.990;5.926;2022-11-20T07:00:28;26.70;;;14.60;;
47335;SDS011;33068;51.990;5.926;2022-11-20T07:02:56;27.05;;;14.88;;
47335;SDS011;33068;51.990;5.926;2022-11-20T07:05:34;29.20;;;15.52;;
47335;SDS011;33068;51.990;5.926;2022-11-20T07:08:21;34.42;;;15.98;;
47335;SDS011;33068;51.990;5.926;2022-11-20T07:11:21;30.10;;;15.38;;
47335;SDS011;33068;51.990;5.926;2022-11-20T07:14:27;27.83;;;13.30;;
47335;SDS011;33068;51.990;5.926;2022-11-20T07:20:00;28.30;;;14.27;;
47335;SDS011;33068;51.990;5.926;2022-11-20T07:22:34;33.67;;;14.90;;
47335;SDS011;33068;51.990;5.926;2022-11-20T07:25:08;33.67;;;15.02;;
47335;SDS011;33068;51.990;5.926;2022-11-20T07:27:49;27.70;;;13.63;;
47335;SDS011;33068;51.990;5.926;2022-11-20T07:30:33;31.17;;;11.93;;
47335;SDS011;33068;51.990;5.926;2022-11-20T07:33:00;31.38;;;14.52;;
47335;SDS011;33068;51.990;5.926;2022-11-20T07:35:58;26.65;;;14.25;;
47335;SDS011;33068;51.990;5.926;2022-11-20T07:38:36;32.33;;;14.35;;
47335;SDS011;33068;51.990;5.926;2022-11-20T07:41:19;30.70;;;15.15;;
47335;SDS011;33068;51.990;5.926;2022-11-20T07:44:25;33.70;;;16.30;;
47335;SDS011;33068;51.990;5.926;2022-11-20T07:50:40;38.13;;;16.90;;
47335;SDS011;33068;51.990;5.926;2022-11-20T07:53:09;35.15;;;15.77;;
47335;SDS011;33068;51.990;5.926;2022-11-20T07:56:51;30.25;;;15.65;;
47335;SDS011;33068;51.990;5.926;2022-11-20T07:59:52;31.77;;;15.45;;
47335;SDS011;33068;51.990;5.926;2022-11-20T08:10:27;34.45;;;16.20;;
47335;SDS011;33068;51.990;5.926;2022-11-20T08:14:15;30.50;;;16.58;;
47335;SDS011;33068;51.990;5.926;2022-11-20T08:16:51;31.70;;;15.75;;
47335;SDS011;33068;51.990;5.926;2022-11-20T08:19:35;35.33;;;17.33;;
47335;SDS011;33068;51.990;5.926;2022-11-20T08:35:38;36.20;;;16.77;;
47335;SDS011;33068;51.990;5.926;2022-11-20T08:38:28;39.95;;;17.77;;
47335;SDS011;33068;51.990;5.926;2022-11-20T08:44:13;34.60;;;16.77;;
47335;SDS011;33068;51.990;5.926;2022-11-20T08:50:08;32.53;;;17.27;;
47335;SDS011;33068;51.990;5.926;2022-11-20T08:55:45;38.63;;;18.55;;
47335;SDS011;33068;51.990;5.926;2022-11-20T08:58:12;37.67;;;18.13;;
47335;SDS011;33068;51.990;5.926;2022-11-20T09:08:00;34.28;;;16.98;;
47335;SDS011;33068;51.990;5.926;2022-11-20T09:11:04;31.77;;;17.33;;
47335;SDS011;33068;51.990;5.926;2022-11-20T09:13:40;34.88;;;18.40;;
47335;SDS011;33068;51.990;5.926;2022-11-20T09:16:42;43.35;;;19.10;;
47335;SDS011;33068;51.990;5.926;2022-11-20T09:19:26;33.05;;;17.90;;
47335;SDS011;33068;51.990;5.926;2022-11-20T09:22:02;33.05;;;17.13;;
47335;SDS011;33068;51.990;5.926;2022-11-20T09:24:31;38.88;;;17.63;;
47335;SDS011;33068;51.990;5.926;2022-11-20T09:27:05;30.58;;;16.27;;
47335;SDS011;33068;51.990;5.926;2022-11-20T09:29:35;41.60;;;18.08;;
47335;SDS011;33068;51.990;5.926;2022-11-20T09:32:23;33.90;;;18.08;;
47335;SDS011;33068;51.990;5.926;2022-11-20T09:34:56;34.60;;;17.55;;
47335;SDS011;33068;51.990;5.926;2022-11-20T09:37:32;37.05;;;18.55;;
47335;SDS011;33068;51.990;5.926;2022-11-20T09:40:19;33.83;;;16.60;;
47335;SDS011;33068;51.990;5.926;2022-11-20T09:42:58;32.95;;;17.20;;
47335;SDS011;33068;51.990;5.926;2022-11-20T09:49:46;34.10;;;17.00;;
47335;SDS011;33068;51.990;5.926;2022-11-20T09:52:30;33.03;;;16.88;;
47335;SDS011;33068;51.990;5.926;2022-11-20T10:03:11;32.97;;;17.33;;
47335;SDS011;33068;51.990;5.926;2022-11-20T10:05:44;31.58;;;16.80;;
47335;SDS011;33068;51.990;5.926;2022-11-20T10:08:16;35.08;;;17.23;;
47335;SDS011;33068;51.990;5.926;2022-11-20T10:33:15;44.92;;;18.02;;
47335;SDS011;33068;51.990;5.926;2022-11-20T10:40:32;32.88;;;16.88;;
47335;SDS011;33068;51.990;5.926;2022-11-20T10:43:48;40.92;;;18.17;;
47335;SDS011;33068;51.990;5.926;2022-11-20T10:46:53;33.75;;;17.10;;
47335;SDS011;33068;51.990;5.926;2022-11-20T10:49:23;33.83;;;16.15;;
47335;SDS011;33068;51.990;5.926;2022-11-20T10:51:54;39.50;;;18.05;;
47335;SDS011;33068;51.990;5.926;2022-11-20T10:54:32;36.40;;;17.33;;
47335;SDS011;33068;51.990;5.926;2022-11-20T10:59:49;33.17;;;15.38;;
47335;SDS011;33068;51.990;5.926;2022-11-20T11:02:34;32.88;;;17.58;;
47335;SDS011;33068;51.990;5.926;2022-11-20T11:05:22;39.05;;;17.88;;
47335;SDS011;33068;51.990;5.926;2022-11-20T11:08:02;29.05;;;17.08;;
47335;SDS011;33068;51.990;5.926;2022-11-20T11:10:39;42.25;;;20.00;;
47335;SDS011;33068;51.990;5.926;2022-11-20T11:13:40;35.00;;;17.92;;
47335;SDS011;33068;51.990;5.926;2022-11-20T11:17:45;45.03;;;19.33;;
47335;SDS011;33068;51.990;5.926;2022-11-20T11:23:38;35.47;;;17.55;;
47335;SDS011;33068;51.990;5.926;2022-11-20T11:26:28;31.92;;;17.40;;
47335;SDS011;33068;51.990;5.926;2022-11-20T11:29:16;35.35;;;17.60;;
47335;SDS011;33068;51.990;5.926;2022-11-20T11:32:05;35.83;;;18.05;;
47335;SDS011;33068;51.990;5.926;2022-11-20T11:34:33;36.60;;;18.35;;
47335;SDS011;33068;51.990;5.926;2022-11-20T11:37:28;36.78;;;18.23;;
47335;SDS011;33068;51.990;5.926;2022-11-20T11:44:13;35.08;;;17.00;;
47335;SDS011;33068;51.990;5.926;2022-11-20T11:47:01;35.75;;;18.85;;
47335;SDS011;33068;51.990;5.926;2022-11-20T11:49:32;33.20;;;17.33;;
47335;SDS011;33068;51.990;5.926;2022-11-20T11:52:04;31.38;;;17.05;;
47335;SDS011;33068;51.990;5.926;2022-11-20T11:54:41;30.23;;;17.55;;
47335;SDS011;33068;51.990;5.926;2022-11-20T11:57:17;36.85;;;19.23;;
47335;SDS011;33068;51.990;5.926;2022-11-20T11:59:55;33.03;;;18.33;;
47335;SDS011;33068;51.990;5.926;2022-11-20T12:02:32;43.70;;;20.00;;
47335;SDS011;33068;51.990;5.926;2022-11-20T12:05:14;40.78;;;21.25;;
47335;SDS011;33068;51.990;5.926;2022-11-20T12:07:46;36.25;;;20.67;;
47335;SDS011;33068;51.990;5.926;2022-11-20T12:13:10;44.42;;;22.80;;
47335;SDS011;33068;51.990;5.926;2022-11-20T12:15:50;41.08;;;22.00;;
47335;SDS011;33068;51.990;5.926;2022-11-20T12:18:17;45.40;;;23.35;;
47335;SDS011;33068;51.990;5.926;2022-11-20T12:20:53;39.60;;;21.02;;
47335;SDS011;33068;51.990;5.926;2022-11-20T12:23:43;42.15;;;23.17;;
47335;SDS011;33068;51.990;5.926;2022-11-20T12:26:29;44.35;;;21.23;;
47335;SDS011;33068;51.990;5.926;2022-11-20T12:29:07;40.78;;;22.08;;
47335;SDS011;33068;51.990;5.926;2022-11-20T12:31:54;43.78;;;22.90;;
47335;SDS011;33068;51.990;5.926;2022-11-20T12:34:43;39.78;;;21.02;;
47335;SDS011;33068;51.990;5.926;2022-11-20T12:37:20;36.55;;;20.40;;
47335;SDS011;33068;51.990;5.926;2022-11-20T12:39:57;33.30;;;20.75;;
47335;SDS011;33068;51.990;5.926;2022-11-20T12:45:35;41.80;;;19.67;;
47335;SDS011;33068;51.990;5.926;2022-11-20T12:48:32;39.47;;;21.60;;
47335;SDS011;33068;51.990;5.926;2022-11-20T12:51:13;38.92;;;19.77;;
47335;SDS011;33068;51.990;5.926;2022-11-20T12:53:56;30.55;;;19.38;;
47335;SDS011;33068;51.990;5.926;2022-11-20T12:56:34;38.45;;;19.90;;
47335;SDS011;33068;51.990;5.926;2022-11-20T12:59:13;35.83;;;19.73;;
47335;SDS011;33068;51.990;5.926;2022-11-20T13:01:58;39.70;;;20.77;;
47335;SDS011;33068;51.990;5.926;2022-11-20T13:04:48;42.13;;;22.80;;
47335;SDS011;33068;51.990;5.926;2022-11-20T13:07:28;43.78;;;22.20;;
47335;SDS011;33068;51.990;5.926;2022-11-20T13:09:58;49.67;;;31.00;;
47335;SDS011;33068;51.990;5.926;2022-11-20T13:12:28;59.58;;;37.00;;
47335;SDS011;33068;51.990;5.926;2022-11-20T13:15:02;42.55;;;24.00;;
47335;SDS011;33068;51.990;5.926;2022-11-20T13:17:41;35.53;;;19.67;;
47335;SDS011;33068;51.990;5.926;2022-11-20T13:20:13;39.85;;;20.60;;
47335;SDS011;33068;51.990;5.926;2022-11-20T13:22:42;39.50;;;20.27;;
47335;SDS011;33068;51.990;5.926;2022-11-20T13:25:21;43.65;;;21.00;;
47335;SDS011;33068;51.990;5.926;2022-11-20T13:27:49;43.30;;;21.17;;
47335;SDS011;33068;51.990;5.926;2022-11-20T13:30:17;41.88;;;21.67;;
47335;SDS011;33068;51.990;5.926;2022-11-20T13:32:53;43.72;;;23.52;;
47335;SDS011;33068;51.990;5.926;2022-11-20T13:35:29;37.70;;;21.47;;
47335;SDS011;33068;51.990;5.926;2022-11-20T13:38:07;46.72;;;23.27;;
47335;SDS011;33068;51.990;5.926;2022-11-20T13:40:36;46.35;;;23.60;;
47335;SDS011;33068;51.990;5.926;2022-11-20T13:43:08;47.00;;;24.00;;
47335;SDS011;33068;51.990;5.926;2022-11-20T13:45:42;48.28;;;25.15;;
47335;SDS011;33068;51.990;5.926;2022-11-20T13:48:22;52.22;;;24.27;;
47335;SDS011;33068;51.990;5.926;2022-11-20T13:50:55;45.35;;;24.70;;
47335;SDS011;33068;51.990;5.926;2022-11-20T13:53:43;53.17;;;23.85;;
47335;SDS011;33068;51.990;5.926;2022-11-20T13:56:32;49.03;;;24.88;;
47335;SDS011;33068;51.990;5.926;2022-11-20T13:59:08;49.97;;;25.80;;
47335;SDS011;33068;51.990;5.926;2022-11-20T14:01:46;49.10;;;25.77;;
47335;SDS011;33068;51.990;5.926;2022-11-20T14:04:18;55.10;;;26.38;;
47335;SDS011;33068;51.990;5.926;2022-11-20T14:06:52;54.50;;;27.70;;
47335;SDS011;33068;51.990;5.926;2022-11-20T14:09:25;52.20;;;26.17;;
47335;SDS011;33068;51.990;5.926;2022-11-20T14:11:54;54.28;;;26.20;;
47335;SDS011;33068;51.990;5.926;2022-11-20T14:14:22;53.50;;;27.08;;
47335;SDS011;33068;51.990;5.926;2022-11-20T14:16:53;57.75;;;27.48;;
47335;SDS011;33068;51.990;5.926;2022-11-20T14:19:33;55.25;;;26.20;;
47335;SDS011;33068;51.990;5.926;2022-11-20T14:22:09;56.95;;;28.75;;
47335;SDS011;33068;51.990;5.926;2022-11-20T14:24:43;61.08;;;28.60;;
47335;SDS011;33068;51.990;5.926;2022-11-20T14:27:12;56.28;;;27.83;;
47335;SDS011;33068;51.990;5.926;2022-11-20T14:29:40;56.60;;;29.17;;
47335;SDS011;33068;51.990;5.926;2022-11-20T14:32:09;63.80;;;29.95;;
47335;SDS011;33068;51.990;5.926;2022-11-20T14:34:39;56.28;;;28.58;;
47335;SDS011;33068;51.990;5.926;2022-11-20T14:37:10;57.78;;;30.10;;
47335;SDS011;33068;51.990;5.926;2022-11-20T14:39:40;54.63;;;28.13;;
47335;SDS011;33068;51.990;5.926;2022-11-20T14:42:15;62.20;;;30.67;;
47335;SDS011;33068;51.990;5.926;2022-11-20T14:44:43;58.85;;;30.42;;
47335;SDS011;33068;51.990;5.926;2022-11-20T14:47:12;67.00;;;31.77;;
47335;SDS011;33068;51.990;5.926;2022-11-20T14:49:42;63.67;;;31.95;;
47335;SDS011;33068;51.990;5.926;2022-11-20T14:52:11;59.08;;;30.48;;
47335;SDS011;33068;51.990;5.926;2022-11-20T14:54:44;62.55;;;33.10;;
47335;SDS011;33068;51.990;5.926;2022-11-20T14:57:22;65.93;;;32.28;;
47335;SDS011;33068;51.990;5.926;2022-11-20T14:59:51;63.85;;;31.85;;
47335;SDS011;33068;51.990;5.926;2022-11-20T15:02:33;65.78;;;33.05;;
47335;SDS011;33068;51.990;5.926;2022-11-20T15:05:02;72.43;;;34.10;;
47335;SDS011;33068;51.990;5.926;2022-11-20T15:07:30;68.18;;;33.65;;
47335;SDS011;33068;51.990;5.926;2022-11-20T15:10:00;71.60;;;33.90;;
47335;SDS011;33068;51.990;5.926;2022-11-20T15:12:28;61.13;;;32.83;;
47335;SDS011;33068;51.990;5.926;2022-11-20T15:14:56;69.07;;;33.65;;
47335;SDS011;33068;51.990;5.926;2022-11-20T15:17:23;65.50;;;33.28;;
47335;SDS011;33068;51.990;5.926;2022-11-20T15:19:53;66.90;;;32.42;;
47335;SDS011;33068;51.990;5.926;2022-11-20T15:22:22;68.85;;;33.45;;
47335;SDS011;33068;51.990;5.926;2022-11-20T15:24:49;67.90;;;32.80;;
47335;SDS011;33068;51.990;5.926;2022-11-20T15:27:16;75.18;;;36.00;;
47335;SDS011;33068;51.990;5.926;2022-11-20T15:29:43;76.20;;;35.65;;
47335;SDS011;33068;51.990;5.926;2022-11-20T15:32:10;72.55;;;35.17;;
47335;SDS011;33068;51.990;5.926;2022-11-20T15:34:37;72.75;;;36.28;;
47335;SDS011;33068;51.990;5.926;2022-11-20T15:37:04;75.07;;;35.15;;
47335;SDS011;33068;51.990;5.926;2022-11-20T15:39:33;71.70;;;35.92;;
47335;SDS011;33068;51.990;5.926;2022-11-20T15:42:00;80.07;;;36.40;;
47335;SDS011;33068;51.990;5.926;2022-11-20T15:44:27;75.53;;;35.83;;
47335;SDS011;33068;51.990;5.926;2022-11-20T15:46:54;76.38;;;35.10;;
47335;SDS011;33068;51.990;5.926;2022-11-20T15:49:21;74.38;;;34.88;;
47335;SDS011;33068;51.990;5.926;2022-11-20T15:51:49;73.10;;;35.03;;
47335;SDS011;33068;51.990;5.926;2022-11-20T15:54:18;71.03;;;34.22;;
47335;SDS011;33068;51.990;5.926;2022-11-20T15:56:48;70.72;;;35.15;;
47335;SDS011;33068;51.990;5.926;2022-11-20T15:59:17;72.45;;;35.95;;
47335;SDS011;33068;51.990;5.926;2022-11-20T16:01:44;72.88;;;34.33;;
47335;SDS011;33068;51.990;5.926;2022-11-20T16:04:12;68.53;;;33.70;;
47335;SDS011;33068;51.990;5.926;2022-11-20T16:06:40;70.65;;;33.55;;
47335;SDS011;33068;51.990;5.926;2022-11-20T16:09:07;77.93;;;36.03;;
47335;SDS011;33068;51.990;5.926;2022-11-20T16:11:35;80.18;;;36.80;;
47335;SDS011;33068;51.990;5.926;2022-11-20T16:14:04;70.45;;;33.55;;
47335;SDS011;33068;51.990;5.926;2022-11-20T16:16:49;78.65;;;34.40;;
47335;SDS011;33068;51.990;5.926;2022-11-20T16:19:17;76.60;;;36.25;;
47335;SDS011;33068;51.990;5.926;2022-11-20T16:21:44;68.00;;;33.78;;
47335;SDS011;33068;51.990;5.926;2022-11-20T16:24:12;76.40;;;34.40;;
47335;SDS011;33068;51.990;5.926;2022-11-20T16:26:41;78.70;;;37.58;;
47335;SDS011;33068;51.990;5.926;2022-11-20T16:29:10;88.95;;;40.35;;
47335;SDS011;33068;51.990;5.926;2022-11-20T16:31:37;91.85;;;38.53;;
47335;SDS011;33068;51.990;5.926;2022-11-20T16:34:05;88.70;;;39.65;;
47335;SDS011;33068;51.990;5.926;2022-11-20T16:36:33;95.10;;;41.10;;
47335;SDS011;33068;51.990;5.926;2022-11-20T16:39:01;86.68;;;38.63;;
47335;SDS011;33068;51.990;5.926;2022-11-20T16:41:29;85.15;;;38.92;;
47335;SDS011;33068;51.990;5.926;2022-11-20T16:43:58;88.57;;;38.45;;
47335;SDS011;33068;51.990;5.926;2022-11-20T16:46:28;86.78;;;39.47;;
47335;SDS011;33068;51.990;5.926;2022-11-20T16:48:57;94.68;;;40.97;;
47335;SDS011;33068;51.990;5.926;2022-11-20T16:51:27;83.40;;;39.13;;
47335;SDS011;33068;51.990;5.926;2022-11-20T16:53:56;95.65;;;40.90;;